Shoofly — WDG2561 — position and weather

sailwx.info

Track history (hours):
 
Tides and Currents Weather Stations Pressure Air Temp Water Temp Dewpoint Dewpoint Depression Visibility Wind Speed Wind Dir Waves Ship Positions

Shoofly

Owner: Palmatier, Thomas M, San Rafael, CA. More information available from US FCC via Universal Licensing System and Coast Guard Vessel Documentation Center.

Last reported at 2017-Oct-21 20:51 UTC. Time now 2017-Dec-11 15:00 UTC.
Position N 32°48' W 117°20'.
Warning: this ship's position is 50 days out of date.

Length 13 m.

Type: Pleasure craft. MMSI: 367516880.

Date/timePositionNaut miles runAvg speedWind from/ knotsBaromVisibWave heightAir tempDewpointWater temp
2017-Oct-21 20:51N 32°48' W 117°20'2 6.8
2017-Oct-21 20:30N 32°50' W 117°21'3 6.8
2017-Oct-21 20:00N 32°53' W 117°23'4 7.1
2017-Oct-21 19:30N 32°57' W 117°25'4 6.9
2017-Oct-21 18:57N 32°60' W 117°28'3 5.7
2017-Oct-21 18:30N 33°02' W 117°29'4 5.9
2017-Oct-21 17:53N 33°05' W 117°31'2 5.8
2017-Oct-21 17:30N 33°07' W 117°32'7 7.0
2017-Oct-21 16:27N 33°14' W 117°36'4 7.0
2017-Oct-21 15:57N 33°17' W 117°37'  
2017-Oct-14 18:28N 33°37' W 117°55'  
Track history (hours):
 
Tides and Currents Weather Stations Pressure Air Temp Water Temp Dewpoint Dewpoint Depression Visibility Wind Speed Wind Dir Waves Ship Positions

Shoofly

Owner: Palmatier, Thomas M, San Rafael, CA. More information available from US FCC via Universal Licensing System and Coast Guard Vessel Documentation Center.

Last reported at 2017-Oct-21 20:51 UTC. Time now 2017-Dec-11 15:00 UTC.
Position N 32°48' W 117°20'.
Warning: this ship's position is 50 days out of date.

Length 13 m.

Type: Pleasure craft. MMSI: 367516880.

Date/timePositionNaut miles runAvg speedWind from/ knotsBaromVisibWave heightAir tempDewpointWater temp
2017-Oct-21 20:51N 32°48' W 117°20'2 6.8
2017-Oct-21 20:30N 32°50' W 117°21'3 6.8
2017-Oct-21 20:00N 32°53' W 117°23'4 7.1
2017-Oct-21 19:30N 32°57' W 117°25'4 6.9
2017-Oct-21 18:57N 32°60' W 117°28'3 5.7
2017-Oct-21 18:30N 33°02' W 117°29'4 5.9
2017-Oct-21 17:53N 33°05' W 117°31'2 5.8
2017-Oct-21 17:30N 33°07' W 117°32'7 7.0
2017-Oct-21 16:27N 33°14' W 117°36'4 7.0
2017-Oct-21 15:57N 33°17' W 117°37'  
2017-Oct-14 18:28N 33°37' W 117°55'  

Dump ship's entire track history